Time;durP1;ratioP1;P1;durP2;ratioP2;P2;SDS_P1;SDS_P2;PMS_P1;PMS_P2;Temp;Humidity;BMP_temperature;BMP_pressure;BME280_temperature;BME280_humidity;BME280_pressure;Samples;Min_cycle;Max_cycle;Signal;HPM_P1;HPM_P2
2022/06/08 00:08:00;;;;;;;0.52;0.03;;;10.70;99.90;;;;;;21073127;28;20036;-52
2022/06/08 00:18:03;;;;;;;0.10;0.00;;;10.80;99.90;;;;;;21055244;28;20028;-50
2022/06/08 00:28:06;;;;;;;0.00;0.00;;;10.80;99.90;;;;;;21054297;28;20066;-52
2022/06/08 00:38:09;;;;;;;0.20;0.00;;;10.70;99.90;;;;;;21053663;28;20056;-50
2022/06/08 00:48:13;;;;;;;0.03;0.03;;;10.70;99.90;;;;;;21052352;28;20109;-49
2022/06/08 00:58:24;;;;;;;0.10;0.00;;;10.60;99.90;;;;;;21052056;28;20081;-49
2022/06/08 01:08:44;;;;;;;0.60;0.20;;;10.80;99.90;;;;;;21051427;28;20311;-49
2022/06/08 01:18:51;;;;;;;0.03;0.00;;;11.10;99.90;;;;;;21034604;28;20097;-50
2022/06/08 01:29:18;;;;;;;0.00;0.00;;;11.40;99.90;;;;;;21034117;28;20044;-52
2022/06/08 01:39:47;;;;;;;0.32;0.00;;;11.30;99.90;;;;;;21065798;28;20060;-51
2022/06/08 01:49:58;;;;;;;0.00;0.00;;;11.20;99.90;;;;;;21033096;28;20032;-52
2022/06/08 02:00:09;;;;;;;0.73;0.10;;;11.10;99.90;;;;;;21060755;28;20036;-51
2022/06/08 02:10:47;;;;;;;0.00;0.00;;;11.30;99.90;;;;;;21082489;28;20041;-52
2022/06/08 02:21:30;;;;;;;1.88;0.00;;;11.10;99.90;;;;;;21064540;28;20028;-50
2022/06/08 02:32:03;;;;;;;0.20;0.10;;;10.90;99.90;;;;;;21058041;28;20047;-49
2022/06/08 02:42:23;;;;;;;0.00;0.00;;;10.60;99.90;;;;;;21045383;28;20052;-49
2022/06/08 02:52:28;;;;;;;1.45;0.00;;;10.50;99.90;;;;;;21061719;28;20036;-51
2022/06/08 03:02:42;;;;;;;0.00;0.00;;;10.70;99.90;;;;;;21061440;28;20122;-51
2022/06/08 03:13:00;;;;;;;0.20;0.00;;;11.00;99.90;;;;;;21059734;28;20028;-57
2022/06/08 03:23:03;;;;;;;0.00;0.00;;;10.90;99.90;;;;;;21059573;28;20089;-53
2022/06/08 03:33:11;;;;;;;0.08;0.08;;;10.90;99.90;;;;;;21018206;28;20078;-56
2022/06/08 03:43:14;;;;;;;1.20;0.08;;;10.90;99.90;;;;;;21057051;28;20052;-52
2022/06/08 03:53:21;;;;;;;0.10;0.03;;;11.00;99.90;;;;;;21040383;28;20062;-51
2022/06/08 04:03:25;;;;;;;0.00;0.00;;;10.80;99.90;;;;;;21056278;28;20105;-52
2022/06/08 04:13:27;;;;;;;1.25;0.10;;;11.00;99.90;;;;;;21039167;28;20752;-50
2022/06/08 04:23:35;;;;;;;0.10;0.10;;;10.90;99.90;;;;;;21037243;28;20040;-57
2022/06/08 04:33:38;;;;;;;0.30;0.00;;;10.80;99.90;;;;;;21037519;28;20036;-49
2022/06/08 04:43:41;;;;;;;0.20;0.10;;;10.30;99.90;;;;;;21052454;28;20181;-52
2022/06/08 04:53:45;;;;;;;1.02;0.03;;;10.30;99.90;;;;;;21069416;28;20036;-49
2022/06/08 05:03:49;;;;;;;0.38;0.10;;;10.30;99.90;;;;;;21053392;28;20097;-52
2022/06/08 05:13:53;;;;;;;0.32;0.08;;;10.60;99.90;;;;;;21052334;28;20036;-49
2022/06/08 05:23:57;;;;;;;2.30;0.10;;;11.00;99.90;;;;;;21050600;28;20070;-50
2022/06/08 05:34:15;;;;;;;0.10;0.00;;;11.10;99.90;;;;;;21051194;28;20093;-50
2022/06/08 05:44:20;;;;;;;1.23;0.10;;;11.10;99.90;;;;;;21048866;28;20060;-51
2022/06/08 05:54:26;;;;;;;0.05;0.00;;;11.50;99.90;;;;;;21032912;28;20044;-50
2022/06/08 06:04:30;;;;;;;0.10;0.00;;;11.90;99.90;;;;;;21049328;28;20085;-52
2022/06/08 06:14:34;;;;;;;0.10;0.10;;;12.50;99.90;;;;;;21031726;28;20393;-58
2022/06/08 06:24:37;;;;;;;1.10;0.10;;;17.40;95.20;;;;;;21048311;28;20044;-53
2022/06/08 06:34:59;;;;;;;0.65;0.10;;;20.00;90.00;;;;;;21047689;28;20032;-54
2022/06/08 06:45:03;;;;;;;0.10;0.10;;;21.90;82.30;;;;;;21055549;28;20055;-59
2022/06/08 06:55:26;;;;;;;0.28;0.03;;;22.60;78.10;;;;;;21001160;28;20029;-59
2022/06/08 07:05:35;;;;;;;0.30;0.00;;;22.40;76.50;;;;;;20973951;28;20081;-59
2022/06/08 07:15:40;;;;;;;1.17;0.20;;;22.10;85.20;;;;;;20994380;28;20426;-56
2022/06/08 07:25:43;;;;;;;0.38;0.10;;;24.30;85.40;;;;;;20976826;28;20113;-57
2022/06/08 07:35:47;;;;;;;0.40;0.10;;;25.90;77.20;;;;;;20976261;28;20098;-60
2022/06/08 07:45:50;;;;;;;1.33;0.10;;;24.50;68.10;;;;;;21048523;28;20068;-57
2022/06/08 07:55:54;;;;;;;1.23;0.10;;;24.60;83.50;;;;;;21073771;28;20546;-62
2022/06/08 08:05:59;;;;;;;0.35;0.10;;;25.50;80.20;;;;;;21056890;28;20032;-63
2022/06/08 08:16:03;;;;;;;1.65;0.10;;;25.90;81.90;;;;;;21056723;28;20094;-54
2022/06/08 08:26:06;;;;;;;0.25;0.10;;;25.80;85.30;;;;;;21055948;28;20109;-56
2022/06/08 08:36:08;;;;;;;1.33;0.10;;;25.80;82.20;;;;;;21055073;28;20031;-62
2022/06/08 08:46:28;;;;;;;1.92;0.10;;;25.80;81.60;;;;;;21037385;28;20105;-57
2022/06/08 08:56:37;;;;;;;1.40;0.20;;;25.40;81.40;;;;;;21053266;28;20040;-62
2022/06/08 09:06:40;;;;;;;0.05;0.05;;;25.20;81.10;;;;;;21052051;28;20077;-62
2022/06/08 09:16:49;;;;;;;0.98;0.10;;;25.10;79.70;;;;;;21070432;28;20089;-63
2022/06/08 09:26:57;;;;;;;0.98;0.10;;;25.00;80.50;;;;;;21051764;28;20043;-56
2022/06/08 09:37:08;;;;;;;1.05;0.20;;;24.50;86.90;;;;;;21050943;28;20437;-56
2022/06/08 09:58:10;;;;;;;1.15;0.30;;;24.50;89.50;;;;;;20966805;28;20448;-63
2022/06/08 10:08:36;;;;;;;1.17;0.70;;;24.80;88.90;;;;;;20974926;28;20032;-56
2022/06/08 10:18:55;;;;;;;2.30;0.70;;;24.90;90.60;;;;;;20989880;28;20342;-64
2022/06/08 10:29:21;;;;;;;3.05;1.55;;;25.10;90.10;;;;;;20998207;28;20118;-56
2022/06/08 10:39:25;;;;;;;2.50;1.60;;;25.80;91.10;;;;;;21016306;28;20471;-63
2022/06/08 10:49:30;;;;;;;2.35;1.60;;;25.50;90.00;;;;;;21063406;28;20032;-64
2022/06/08 10:59:33;;;;;;;1.92;1.63;;;24.40;93.50;;;;;;21063027;28;20069;-63
2022/06/08 11:09:36;;;;;;;2.03;1.80;;;24.90;91.50;;;;;;21062131;28;20036;-63
2022/06/08 11:19:42;;;;;;;2.40;2.17;;;25.00;89.50;;;;;;21045017;28;20093;-53
2022/06/08 11:29:48;;;;;;;3.58;1.80;;;24.50;91.20;;;;;;21059922;28;20522;-63
2022/06/08 11:40:03;;;;;;;4.45;2.90;;;24.30;93.00;;;;;;21068062;28;20044;-62
2022/06/08 11:50:16;;;;;;;6.20;2.67;;;24.60;92.10;;;;;;21075364;28;20085;-61
2022/06/08 12:00:24;;;;;;;3.75;2.25;;;24.60;91.70;;;;;;21058009;28;20032;-63
2022/06/08 12:10:31;;;;;;;2.80;2.42;;;25.00;92.00;;;;;;21073899;28;20070;-62
2022/06/08 12:20:40;;;;;;;2.13;1.70;;;24.70;90.00;;;;;;21073246;28;20039;-64
2022/06/08 12:30:49;;;;;;;2.33;1.52;;;24.50;91.70;;;;;;21072279;28;20089;-64
2022/06/08 12:41:01;;;;;;;2.63;1.00;;;25.00;90.30;;;;;;21019452;28;20048;-52
2022/06/08 12:51:28;;;;;;;2.15;1.83;;;24.60;88.20;;;;;;21054059;28;20066;-63
2022/06/08 13:01:31;;;;;;;6.50;2.63;;;23.60;91.30;;;;;;21053948;28;20036;-63
2022/06/08 13:11:34;;;;;;;3.45;2.22;;;23.90;90.20;;;;;;21054262;28;20062;-63
2022/06/08 13:21:37;;;;;;;3.25;2.67;;;23.00;91.00;;;;;;21052706;28;20039;-53
2022/06/08 13:31:40;;;;;;;5.20;2.80;;;23.10;92.70;;;;;;21051230;28;20473;-63
2022/06/08 13:41:44;;;;;;;2.90;2.33;;;23.60;91.30;;;;;;21041372;28;20074;-61
2022/06/08 13:51:47;;;;;;;3.50;2.80;;;22.70;91.90;;;;;;21056777;28;20032;-61
2022/06/08 14:01:51;;;;;;;4.82;2.67;;;22.10;92.30;;;;;;21067723;28;20028;-62
2022/06/08 14:22:18;;;;;;;3.00;2.60;;;23.70;89.80;;;;;;21065742;28;20385;-63
2022/06/08 14:32:40;;;;;;;4.60;3.40;;;25.50;89.60;;;;;;21064966;28;20028;-54
2022/06/08 14:42:42;;;;;;;4.53;2.90;;;24.70;88.80;;;;;;21063514;28;20051;-62
2022/06/08 14:52:46;;;;;;;5.28;2.30;;;23.70;89.60;;;;;;21063486;28;20040;-63
2022/06/08 15:02:49;;;;;;;5.25;3.10;;;24.00;89.50;;;;;;21062172;28;20400;-61
2022/06/08 15:12:52;;;;;;;3.13;2.00;;;22.70;90.60;;;;;;21062106;28;20036;-61
2022/06/08 15:22:59;;;;;;;3.25;2.17;;;22.30;90.40;;;;;;21077994;28;20067;-61
2022/06/08 15:33:02;;;;;;;2.20;2.00;;;21.90;90.90;;;;;;21060026;28;20040;-61
2022/06/08 15:43:05;;;;;;;3.92;2.20;;;22.60;91.30;;;;;;21042159;28;20566;-61
2022/06/08 15:53:22;;;;;;;4.38;1.90;;;23.40;89.30;;;;;;21058532;28;20438;-61
2022/06/08 16:03:25;;;;;;;3.67;2.10;;;21.90;91.10;;;;;;21057919;28;20036;-60
2022/06/08 16:13:28;;;;;;;4.22;2.47;;;20.40;93.60;;;;;;21055974;28;20032;-53
2022/06/08 16:23:31;;;;;;;3.13;2.00;;;19.60;96.10;;;;;;21056317;28;20036;-60
2022/06/08 16:33:35;;;;;;;4.00;2.20;;;19.20;96.10;;;;;;21054988;28;20039;-52
2022/06/08 16:43:37;;;;;;;2.17;1.98;;;18.90;97.30;;;;;;21070741;28;20101;-56
2022/06/08 16:53:42;;;;;;;2.58;2.05;;;18.50;98.10;;;;;;21070696;28;20048;-59
2022/06/08 17:03:45;;;;;;;3.40;2.30;;;18.10;99.20;;;;;;21053312;28;20085;-59
2022/06/08 17:13:47;;;;;;;4.05;2.75;;;17.70;99.90;;;;;;21053516;28;20542;-59
2022/06/08 17:23:50;;;;;;;3.78;2.30;;;17.30;99.90;;;;;;21051764;28;20040;-59
2022/06/08 17:33:53;;;;;;;5.65;2.42;;;16.90;99.90;;;;;;21052331;28;20090;-59
2022/06/08 17:43:58;;;;;;;4.28;3.00;;;16.60;99.90;;;;;;21050270;28;20373;-59
2022/06/08 17:54:00;;;;;;;3.40;2.28;;;16.30;99.90;;;;;;21050652;28;20040;-59
2022/06/08 18:04:03;;;;;;;3.10;1.95;;;16.10;99.90;;;;;;21050018;28;20160;-58
2022/06/08 18:14:06;;;;;;;4.18;2.45;;;15.80;99.90;;;;;;21066647;28;20032;-58
2022/06/08 18:24:09;;;;;;;4.22;2.20;;;15.60;99.90;;;;;;21049582;28;20098;-58
2022/06/08 18:34:11;;;;;;;3.30;2.33;;;15.40;99.90;;;;;;21050142;28;20044;-59
2022/06/08 18:44:15;;;;;;;2.92;2.30;;;15.30;99.90;;;;;;21062269;28;20048;-59
2022/06/08 18:54:20;;;;;;;3.53;2.25;;;15.30;99.90;;;;;;21063409;28;20101;-58
2022/06/08 19:04:27;;;;;;;3.05;2.40;;;15.20;99.90;;;;;;21062978;28;20036;-58
2022/06/08 19:14:30;;;;;;;20.05;4.75;;;15.20;99.90;;;;;;21061779;28;20097;-49
2022/06/08 19:24:32;;;;;;;7.90;4.60;;;14.90;99.90;;;;;;21061112;28;20539;-51
2022/06/08 19:34:36;;;;;;;24.83;8.27;;;13.70;99.90;;;;;;21043865;28;20028;-45
2022/06/08 19:44:39;;;;;;;9.70;7.05;;;13.40;99.90;;;;;;21058634;28;20047;-50
2022/06/08 19:54:45;;;;;;;9.05;7.07;;;13.10;99.90;;;;;;21058612;28;20105;-45
2022/06/08 20:04:48;;;;;;;7.90;5.82;;;12.90;99.90;;;;;;21057991;28;20070;-44
2022/06/08 20:14:50;;;;;;;10.23;7.40;;;12.90;99.90;;;;;;21057025;28;20036;-44
2022/06/08 20:24:54;;;;;;;18.33;8.73;;;12.80;99.90;;;;;;21056350;28;20538;-50
2022/06/08 20:35:00;;;;;;;10.52;8.23;;;12.70;99.90;;;;;;21055365;28;20432;-46
